createdAt,value
2023-02-01T09:05:19.018Z,5.60
2023-02-01T09:11:54.905Z,5.70
2023-02-01T09:16:10.056Z,5.60
2023-02-01T09:22:54.390Z,5.60
2023-02-01T09:49:34.189Z,6.10
2023-02-01T09:52:05.512Z,6.00
2023-02-01T09:55:01.787Z,6.30
2023-02-01T09:57:57.022Z,6.90
2023-02-01T10:00:28.305Z,6.80
2023-02-01T10:02:56.829Z,6.80
2023-02-01T10:05:42.535Z,6.30
2023-02-01T10:08:27.415Z,5.90
2023-02-01T10:10:59.470Z,5.40
2023-02-01T10:13:59.350Z,5.10
2023-02-01T10:16:37.026Z,4.80
2023-02-01T10:19:39.111Z,4.70
2023-02-01T10:22:10.206Z,4.60
2023-02-01T10:24:58.253Z,4.70
2023-02-01T10:27:33.792Z,4.60
2023-02-01T10:30:04.847Z,4.60
2023-02-01T10:32:36.054Z,4.80
2023-02-01T10:35:14.169Z,4.90
2023-02-01T10:37:43.600Z,5.20
2023-02-01T10:40:23.227Z,5.50
2023-02-01T10:42:54.876Z,5.70
2023-02-01T10:45:24.556Z,6.30
2023-02-01T10:47:53.778Z,7.30
2023-02-01T10:50:37.108Z,7.30
2023-02-01T10:53:19.540Z,7.30
2023-02-01T10:55:54.084Z,7.30
2023-02-01T10:58:27.648Z,7.20
2023-02-01T11:01:07.150Z,7.00
2023-02-01T11:04:14.317Z,7.30
2023-02-01T11:06:45.885Z,7.50
2023-02-01T11:09:23.532Z,7.40
2023-02-01T11:11:50.323Z,7.40
2023-02-01T11:14:27.342Z,7.50
2023-02-01T11:17:02.570Z,7.70
2023-02-01T11:19:30.344Z,8.10
2023-02-01T11:22:00.344Z,8.40
2023-02-01T11:24:36.507Z,8.60
2023-02-01T11:27:07.079Z,8.60
2023-02-01T11:29:41.266Z,8.40
2023-02-01T11:32:10.023Z,8.40
2023-02-01T11:35:02.976Z,8.30
2023-02-01T11:37:38.044Z,8.10
2023-02-01T11:40:44.028Z,8.30
2023-02-01T11:43:20.759Z,8.30
2023-02-01T11:46:05.017Z,7.90
2023-02-01T11:48:33.942Z,7.40
2023-02-01T11:51:29.318Z,7.10
2023-02-01T11:54:14.910Z,6.90
2023-02-01T11:57:18.961Z,6.80
2023-02-01T12:00:20.047Z,6.60
2023-02-01T12:03:04.360Z,6.50
2023-02-01T12:05:41.080Z,6.40
2023-02-01T12:08:17.281Z,6.30
2023-02-01T12:10:51.196Z,6.40
2023-02-01T12:13:36.828Z,6.70
2023-02-01T12:16:24.365Z,6.90
2023-02-01T12:18:54.339Z,7.00
2023-02-01T12:21:26.095Z,7.20
2023-02-01T12:24:03.774Z,7.40
2023-02-01T12:26:45.198Z,7.70
2023-02-01T12:29:49.021Z,8.40
2023-02-01T12:32:41.743Z,8.70
2023-02-01T12:35:45.658Z,8.50
2023-02-01T12:38:28.770Z,8.30
2023-02-01T12:41:04.285Z,7.80
2023-02-01T12:43:49.257Z,7.40
2023-02-01T12:46:23.062Z,7.10
2023-02-01T12:49:02.955Z,6.90
2023-02-01T12:51:44.091Z,6.70
2023-02-01T12:54:32.583Z,6.60
2023-02-01T12:57:12.125Z,6.50
2023-02-01T13:00:08.069Z,6.50
2023-02-01T13:03:01.961Z,6.40
2023-02-01T13:05:36.195Z,6.40
2023-02-01T13:08:13.858Z,6.30
2023-02-01T13:10:48.913Z,6.20
2023-02-01T13:13:29.590Z,6.10
2023-02-01T13:15:59.935Z,6.00
2023-02-01T13:18:40.779Z,5.80
2023-02-01T13:21:14.487Z,5.60
2023-02-01T13:23:44.550Z,5.50
2023-02-01T13:26:12.491Z,5.40
2023-02-01T13:28:57.719Z,5.30
2023-02-01T13:31:40.425Z,5.20
2023-02-01T13:34:34.111Z,5.20
2023-02-01T13:37:24.370Z,5.20
2023-02-01T13:40:27.983Z,5.20
2023-02-01T13:43:02.591Z,5.20
2023-02-01T13:45:34.057Z,5.10
2023-02-01T13:48:05.168Z,5.10
2023-02-01T13:50:42.484Z,5.10
2023-02-01T13:53:16.742Z,5.00
2023-02-01T13:55:55.931Z,5.00
2023-02-01T13:58:37.564Z,5.00
2023-02-01T14:01:22.439Z,5.00
2023-02-01T14:04:01.800Z,5.10
2023-02-01T14:06:30.864Z,5.10
2023-02-01T14:09:09.108Z,5.00
2023-02-01T14:11:44.038Z,5.00
2023-02-01T14:14:16.779Z,5.00
2023-02-01T14:16:45.349Z,4.90
2023-02-01T14:19:27.710Z,4.80
2023-02-01T14:21:59.759Z,4.70
2023-02-01T14:24:37.776Z,4.70
2023-02-01T14:27:21.272Z,4.70
2023-02-01T14:30:00.634Z,4.70
2023-02-01T14:32:39.254Z,4.70
2023-02-01T14:35:22.890Z,4.60
2023-02-01T14:37:54.202Z,4.60
2023-02-01T14:40:25.975Z,4.60
2023-02-01T14:42:54.465Z,4.50
2023-02-01T14:45:24.485Z,4.50
2023-02-01T14:47:55.745Z,4.50
2023-02-01T14:50:33.337Z,4.50
2023-02-01T14:53:12.784Z,4.50
2023-02-01T14:56:05.690Z,4.40
2023-02-01T14:58:35.257Z,4.40
2023-02-01T15:01:22.425Z,4.40
2023-02-01T15:04:01.669Z,4.40
2023-02-01T15:06:47.968Z,4.40
2023-02-01T15:09:26.567Z,4.40
2023-02-01T15:12:12.537Z,4.40
2023-02-01T15:14:51.959Z,4.30
2023-02-01T15:17:34.640Z,4.30
2023-02-01T15:20:14.435Z,4.40
2023-02-01T15:22:41.948Z,4.40
2023-02-01T15:25:32.923Z,4.40
2023-02-01T15:27:59.643Z,4.40
2023-02-01T15:30:32.717Z,4.30
2023-02-01T15:33:15.450Z,4.30
2023-02-01T15:35:45.350Z,4.30
2023-02-01T15:38:28.169Z,4.30
2023-02-01T15:40:59.260Z,4.30
2023-02-01T15:43:27.816Z,4.20
2023-02-01T15:46:02.716Z,4.20
2023-02-01T15:48:46.276Z,4.20
2023-02-01T15:51:16.024Z,4.00
2023-02-01T15:53:48.825Z,3.80
2023-02-01T15:56:16.280Z,3.70
2023-02-01T15:58:47.419Z,3.70
2023-02-01T16:01:15.634Z,3.80
2023-02-01T16:03:45.346Z,3.70
2023-02-01T16:06:33.975Z,3.70
2023-02-01T16:09:10.421Z,3.70
2023-02-01T16:12:04.651Z,3.70
2023-02-01T16:14:32.827Z,3.50
2023-02-01T16:16:59.855Z,3.40
2023-02-01T16:19:29.151Z,3.40
2023-02-01T16:21:56.924Z,3.40
2023-02-01T16:24:25.928Z,3.30
2023-02-01T16:26:52.957Z,3.20
2023-02-01T16:29:26.883Z,3.10
2023-02-01T16:31:53.985Z,3.00
2023-02-01T16:34:25.248Z,3.10
2023-02-01T16:36:54.106Z,3.10
2023-02-01T16:39:21.819Z,3.30
2023-02-01T16:41:49.036Z,3.40
2023-02-01T16:44:16.221Z,3.50
2023-02-01T16:46:47.361Z,3.50
2023-02-01T16:49:21.036Z,3.60
2023-02-01T16:51:49.717Z,3.60
2023-02-01T16:54:16.626Z,3.60
2023-02-01T16:56:45.349Z,3.60
2023-02-01T16:59:12.269Z,3.60
2023-02-01T17:01:39.776Z,3.50
2023-02-01T17:04:16.235Z,3.50
2023-02-01T17:06:43.428Z,3.50
